Main page
METAR-TAF:

METAR-TAF

Airports :

La Paz, Bolivia

El Alto International Airport

latitude: 16-31S, longitude: 068-11W, elevation: 4058 m

Current weather observation

The report was made 56 minutes ago, at 18:00 UTC
Wind 16 kt from the West with gusts up to 26 kt, varying between West/Southwest and Northwest
Temperature 16°C
Humidity 18%
Pressure 1038 hPa
Visibility 10 km or more

METAR: SLLP 231800Z 27016G26KT 240V310 9999 NSC 16/M08 Q1038

Time: 14:56 (18:56 UTC)

Forecast

The report was made 2 hours and 26 minutes ago, at 16:30 UTC
Forecast valid from 23 at 18 UTC to 24 at 18 UTC
Wind 12 kt from the West/Southwest
Visibility 10 km or more
Becoming
from 23 at 23 UTC to 24 at 01 UTC
Wind 5 kt from the East/Northeast

TAF: SLLP 231630Z 2318/2418 25012KT 9999 NSC TX17/2320Z TNM05/2410Z BECMG 2323/2401 07005KT

Weather observations and forecasts of more than 4000 airports (METAR and TAF reports).

The available stations are represented by yellow and red dots on the map.

Hover mouse over dot to see the name of the station.

Then click to see weather observations and forecasts.

To change the map : click on the green buttons with a black cross to zoom in, on the green button with a dash to zoom out, or on the green arrows for adjacent maps.


METAR-TAF: